createdAt,value
2019-05-21T00:00:37.261Z,1005.18
2019-05-21T00:01:37.204Z,1005.20
2019-05-21T00:02:37.223Z,1005.21
2019-05-21T00:03:37.187Z,1005.21
2019-05-21T00:04:37.188Z,1005.22
2019-05-21T00:05:37.161Z,1005.19
2019-05-21T00:06:37.152Z,1005.16
2019-05-21T00:07:37.191Z,1005.23
2019-05-21T00:08:37.134Z,1005.18
2019-05-21T00:09:37.129Z,1005.18
2019-05-21T00:10:37.105Z,1005.17
2019-05-21T00:11:37.094Z,1005.20
2019-05-21T00:12:37.114Z,1005.17
2019-05-21T00:13:37.082Z,1005.15
2019-05-21T00:14:37.067Z,1005.26
2019-05-21T00:15:37.065Z,1005.18
2019-05-21T00:16:37.075Z,1005.24
2019-05-21T00:17:37.104Z,1005.22
2019-05-21T00:18:37.054Z,1005.22
2019-05-21T00:19:37.060Z,1005.22
2019-05-21T00:20:36.997Z,1005.15
2019-05-21T00:21:36.987Z,1005.21
2019-05-21T00:22:37.011Z,1005.20
2019-05-21T00:23:36.985Z,1005.19
2019-05-21T00:24:37.000Z,1005.15
2019-05-21T00:25:36.939Z,1005.10
2019-05-21T00:26:36.943Z,1005.19
2019-05-21T00:27:36.923Z,1005.13
2019-05-21T00:28:36.934Z,1005.13
2019-05-21T00:29:36.903Z,1005.10
2019-05-21T00:30:36.886Z,1005.09
2019-05-21T00:31:36.877Z,1005.12
2019-05-21T00:32:36.868Z,1005.13
2019-05-21T00:33:36.888Z,1005.13
2019-05-21T00:34:43.899Z,1005.11
2019-05-21T00:35:37.840Z,1005.13
2019-05-21T00:36:36.833Z,1005.14
2019-05-21T00:37:36.808Z,1005.07
2019-05-21T00:38:36.877Z,1005.08
2019-05-21T00:39:36.814Z,1005.11
2019-05-21T00:40:36.811Z,1005.10
2019-05-21T00:41:36.787Z,1005.13
2019-05-21T00:42:36.771Z,1005.09
2019-05-21T00:43:36.770Z,1005.10
2019-05-21T00:44:36.772Z,1005.12
2019-05-21T00:45:36.726Z,1005.11
2019-05-21T00:46:36.722Z,1005.13
2019-05-21T00:47:36.699Z,1005.11
2019-05-21T00:48:36.692Z,1005.15
2019-05-21T00:49:36.706Z,1005.09
2019-05-21T00:50:36.672Z,1005.14
2019-05-21T00:51:36.663Z,1005.09
2019-05-21T00:52:36.648Z,1005.08
2019-05-21T00:53:36.643Z,1005.09
2019-05-21T00:54:36.686Z,1005.09
2019-05-21T00:55:36.620Z,1005.04
2019-05-21T00:56:36.680Z,1005.09
2019-05-21T00:57:36.604Z,1005.09
2019-05-21T00:58:36.588Z,1005.08
2019-05-21T00:59:36.597Z,1005.10
2019-05-21T01:00:36.565Z,1005.12
2019-05-21T01:01:36.571Z,1005.06
2019-05-21T01:02:36.541Z,1005.06
2019-05-21T01:03:36.536Z,1005.08
2019-05-21T01:04:36.565Z,1005.06
2019-05-21T01:05:36.514Z,1005.02
2019-05-21T01:06:36.508Z,1005.05
2019-05-21T01:07:36.491Z,1005.09
2019-05-21T01:08:36.484Z,1005.09
2019-05-21T01:09:36.471Z,1005.01
2019-05-21T01:10:36.485Z,1005.08
2019-05-21T01:11:36.486Z,1005.05
2019-05-21T01:12:36.434Z,1004.99
2019-05-21T01:13:36.428Z,1004.94
2019-05-21T01:14:36.445Z,1004.94
2019-05-21T01:15:36.453Z,1004.91
2019-05-21T01:16:36.390Z,1004.93
2019-05-21T01:17:36.380Z,1004.91
2019-05-21T01:18:36.381Z,1004.89
2019-05-21T01:19:36.401Z,1004.89
2019-05-21T01:20:36.353Z,1004.96
2019-05-21T01:21:36.338Z,1004.94
2019-05-21T01:22:36.380Z,1004.94
2019-05-21T01:23:36.342Z,1004.92
2019-05-21T01:24:36.313Z,1004.97
2019-05-21T01:25:36.364Z,1004.93
2019-05-21T01:26:36.292Z,1005.00
2019-05-21T01:27:36.287Z,1004.96
2019-05-21T01:28:36.258Z,1004.97
2019-05-21T01:29:36.259Z,1004.98
2019-05-21T01:30:36.269Z,1005.01
2019-05-21T01:31:36.234Z,1004.92
2019-05-21T01:32:36.220Z,1004.99
2019-05-21T01:33:36.214Z,1004.91
2019-05-21T01:34:36.254Z,1004.92
2019-05-21T01:35:36.225Z,1004.95
2019-05-21T01:36:36.186Z,1004.87
2019-05-21T01:37:36.170Z,1004.86
2019-05-21T01:38:36.157Z,1004.84
2019-05-21T01:39:36.156Z,1004.89
2019-05-21T01:40:36.170Z,1004.87
2019-05-21T01:41:36.127Z,1004.82
2019-05-21T01:42:36.129Z,1004.82
2019-05-21T01:43:36.130Z,1004.83
2019-05-21T01:44:36.097Z,1004.84
2019-05-21T01:45:36.119Z,1004.86
2019-05-21T01:46:36.111Z,1004.77
2019-05-21T01:47:36.065Z,1004.83
2019-05-21T01:48:36.054Z,1004.87
2019-05-21T01:49:36.045Z,1004.84
2019-05-21T01:50:36.060Z,1004.82
2019-05-21T01:51:36.026Z,1004.83
2019-05-21T01:52:36.018Z,1004.83
2019-05-21T01:53:36.002Z,1004.84
2019-05-21T01:54:35.987Z,1004.83
2019-05-21T01:55:36.013Z,1004.85
2019-05-21T01:56:35.967Z,1004.84
2019-05-21T01:57:35.960Z,1004.81
2019-05-21T01:58:35.952Z,1004.80
2019-05-21T01:59:35.929Z,1004.88
2019-05-21T02:00:35.965Z,1004.88
2019-05-21T02:01:35.915Z,1004.82
2019-05-21T02:02:35.905Z,1004.84
2019-05-21T02:03:35.911Z,1004.83
2019-05-21T02:04:35.959Z,1004.79
2019-05-21T02:05:35.868Z,1004.86
2019-05-21T02:06:35.882Z,1004.83
2019-05-21T02:07:35.849Z,1004.88
2019-05-21T02:08:35.842Z,1004.88
2019-05-21T02:09:35.826Z,1004.86
2019-05-21T02:10:35.865Z,1004.84
2019-05-21T02:11:35.830Z,1004.88
2019-05-21T02:12:35.791Z,1004.84
2019-05-21T02:13:35.785Z,1004.91
2019-05-21T02:14:35.775Z,1004.86
2019-05-21T02:15:35.777Z,1004.85
2019-05-21T02:16:35.783Z,1004.89
2019-05-21T02:17:35.754Z,1004.89
2019-05-21T02:18:35.737Z,1004.87
2019-05-21T02:19:35.713Z,1004.88
2019-05-21T02:20:35.710Z,1004.87
2019-05-21T02:21:35.744Z,1004.81
2019-05-21T02:22:35.692Z,1004.85
2019-05-21T02:23:35.670Z,1004.78
2019-05-21T02:24:35.672Z,1004.77
2019-05-21T02:25:35.660Z,1004.83
2019-05-21T02:26:35.669Z,1004.80
2019-05-21T02:27:35.651Z,1004.77
2019-05-21T02:28:35.619Z,1004.85
2019-05-21T02:29:35.607Z,1004.80
2019-05-21T02:30:35.606Z,1004.79
2019-05-21T02:31:35.621Z,1004.80
2019-05-21T02:32:35.576Z,1004.77
2019-05-21T02:33:35.597Z,1004.80
2019-05-21T02:34:35.552Z,1004.80
2019-05-21T02:35:52.831Z,1004.85
2019-05-21T02:36:36.694Z,1004.85
2019-05-21T02:37:35.524Z,1004.85
2019-05-21T02:38:35.512Z,1004.84
2019-05-21T02:39:35.539Z,1004.91
2019-05-21T02:40:35.529Z,1004.96
2019-05-21T02:41:35.480Z,1004.90
2019-05-21T02:42:35.516Z,1004.92
2019-05-21T02:43:35.459Z,1004.94
2019-05-21T02:44:35.446Z,1004.91
2019-05-21T02:45:35.446Z,1004.89
2019-05-21T02:46:35.424Z,1004.96
2019-05-21T02:47:35.442Z,1005.00
2019-05-21T02:48:35.414Z,1004.95
2019-05-21T02:49:35.402Z,1004.98
2019-05-21T02:50:35.385Z,1004.94
2019-05-21T02:51:35.368Z,1004.94
2019-05-21T02:52:35.406Z,1005.01
2019-05-21T02:53:35.377Z,1004.99
2019-05-21T02:54:40.910Z,1004.97
2019-05-21T02:55:36.327Z,1005.01
2019-05-21T02:56:35.324Z,1005.00
2019-05-21T02:57:35.335Z,1004.97
2019-05-21T02:58:35.296Z,1005.05
2019-05-21T02:59:35.284Z,1005.03
2019-05-21T03:00:38.667Z,1005.00
2019-05-21T03:01:35.270Z,1004.99
2019-05-21T03:02:35.250Z,1005.06
2019-05-21T03:03:35.280Z,1005.07
2019-05-21T03:04:35.256Z,1005.07
2019-05-21T03:05:35.220Z,1005.16
2019-05-21T03:06:35.229Z,1005.08
2019-05-21T03:07:35.231Z,1005.07
2019-05-21T03:08:35.220Z,1005.07
2019-05-21T03:09:35.180Z,1005.15
2019-05-21T03:10:35.169Z,1005.20
2019-05-21T03:11:35.162Z,1005.21
2019-05-21T03:12:35.209Z,1005.20
2019-05-21T03:13:35.166Z,1005.10
2019-05-21T03:14:35.127Z,1005.13
2019-05-21T03:15:35.118Z,1005.15
2019-05-21T03:16:35.105Z,1005.20
2019-05-21T03:17:35.138Z,1005.23
2019-05-21T03:18:35.079Z,1005.24
2019-05-21T03:19:35.080Z,1005.20
2019-05-21T03:20:35.060Z,1005.22
2019-05-21T03:21:35.051Z,1005.18
2019-05-21T03:22:35.073Z,1005.15
2019-05-21T03:23:35.046Z,1005.20
2019-05-21T03:24:35.022Z,1005.23
2019-05-21T03:25:35.019Z,1005.24
2019-05-21T03:26:35.010Z,1005.20
2019-05-21T03:27:35.010Z,1005.17
2019-05-21T03:28:35.041Z,1005.14
2019-05-21T03:29:34.970Z,1005.20
2019-05-21T03:30:34.973Z,1005.25
2019-05-21T03:31:34.952Z,1005.27
2019-05-21T03:32:34.967Z,1005.28
2019-05-21T03:33:34.927Z,1005.27
2019-05-21T03:34:34.940Z,1005.33
2019-05-21T03:35:34.924Z,1005.27
2019-05-21T03:36:34.901Z,1005.22
2019-05-21T03:37:34.880Z,1005.25
2019-05-21T03:38:34.918Z,1005.30
2019-05-21T03:39:34.881Z,1005.30
2019-05-21T03:40:34.849Z,1005.32
2019-05-21T03:41:34.876Z,1005.31
2019-05-21T03:42:34.826Z,1005.33
2019-05-21T03:43:34.839Z,1005.29
2019-05-21T03:44:34.842Z,1005.29
2019-05-21T03:45:34.811Z,1005.37
2019-05-21T03:46:34.788Z,1005.41
2019-05-21T03:47:34.783Z,1005.38
2019-05-21T03:48:34.811Z,1005.40
2019-05-21T03:49:34.791Z,1005.37
2019-05-21T03:50:34.779Z,1005.40
2019-05-21T03:51:34.790Z,1005.46
2019-05-21T03:52:34.738Z,1005.41
2019-05-21T03:53:34.717Z,1005.40
2019-05-21T03:54:34.726Z,1005.47
2019-05-21T03:55:34.751Z,1005.40
2019-05-21T03:56:34.706Z,1005.36
2019-05-21T03:57:34.669Z,1005.45
2019-05-21T03:58:34.660Z,1005.44
2019-05-21T03:59:34.690Z,1005.42
2019-05-21T04:00:34.642Z,1005.44
2019-05-21T04:01:34.622Z,1005.45
2019-05-21T04:02:34.613Z,1005.39
2019-05-21T04:03:34.604Z,1005.41
2019-05-21T04:04:34.624Z,1005.41
2019-05-21T04:05:34.608Z,1005.42
2019-05-21T04:06:50.621Z,1005.37
2019-05-21T04:07:35.559Z,1005.37
2019-05-21T04:08:34.546Z,1005.38
2019-05-21T04:09:34.534Z,1005.45
2019-05-21T04:10:34.566Z,1005.42
2019-05-21T04:11:34.516Z,1005.45
2019-05-21T04:12:34.524Z,1005.49
2019-05-21T04:13:34.493Z,1005.49
2019-05-21T04:14:34.492Z,1005.50
2019-05-21T04:15:34.505Z,1005.50
2019-05-21T04:16:34.465Z,1005.47
2019-05-21T04:17:35.036Z,1005.48
2019-05-21T04:18:34.435Z,1005.51
2019-05-21T04:19:34.425Z,1005.53
2019-05-21T04:20:34.447Z,1005.57
2019-05-21T04:21:34.441Z,1005.57
2019-05-21T04:22:34.393Z,1005.56
2019-05-21T04:23:34.388Z,1005.58
2019-05-21T04:24:34.383Z,1005.57
2019-05-21T04:25:34.390Z,1005.57
2019-05-21T04:26:34.351Z,1005.53
2019-05-21T04:27:34.342Z,1005.49
2019-05-21T04:28:34.331Z,1005.50
2019-05-21T04:29:34.330Z,1005.54
2019-05-21T04:30:34.352Z,1005.49
2019-05-21T04:31:34.331Z,1005.55
2019-05-21T04:32:34.287Z,1005.50
2019-05-21T04:33:34.281Z,1005.57
2019-05-21T04:34:34.264Z,1005.55
2019-05-21T04:35:34.292Z,1005.60
2019-05-21T04:36:34.265Z,1005.57
2019-05-21T04:37:34.257Z,1005.58
2019-05-21T04:38:34.222Z,1005.56
2019-05-21T04:39:34.223Z,1005.56
2019-05-21T04:40:34.230Z,1005.61
2019-05-21T04:41:34.194Z,1005.55
2019-05-21T04:42:34.265Z,1005.63
2019-05-21T04:43:34.170Z,1005.67
2019-05-21T04:44:34.159Z,1005.61
2019-05-21T04:45:34.206Z,1005.63
2019-05-21T04:46:34.160Z,1005.66
2019-05-21T04:47:34.128Z,1005.61
2019-05-21T04:48:34.112Z,1005.65
2019-05-21T04:49:34.127Z,1005.72
2019-05-21T04:50:34.122Z,1005.69
2019-05-21T04:51:34.106Z,1005.68
2019-05-21T04:52:34.089Z,1005.69
2019-05-21T04:53:34.109Z,1005.72
2019-05-21T04:54:34.051Z,1005.72
2019-05-21T04:55:34.046Z,1005.70
2019-05-21T04:56:34.063Z,1005.83
2019-05-21T04:57:37.300Z,1005.78
2019-05-21T04:58:34.011Z,1005.77
2019-05-21T04:59:33.996Z,1005.80
2019-05-21T05:00:34.011Z,1005.71
2019-05-21T05:01:34.019Z,1005.75
2019-05-21T05:02:33.967Z,1005.69
2019-05-21T05:03:33.957Z,1005.81
2019-05-21T05:04:33.980Z,1005.69
2019-05-21T05:05:33.943Z,1005.73
2019-05-21T05:06:33.956Z,1005.73
2019-05-21T05:07:33.929Z,1005.68
2019-05-21T05:08:33.916Z,1005.74
2019-05-21T05:09:33.885Z,1005.72
2019-05-21T05:10:33.883Z,1005.69
2019-05-21T05:11:33.901Z,1005.80
2019-05-21T05:12:33.903Z,1005.87
2019-05-21T05:13:33.850Z,1005.81
2019-05-21T05:14:33.832Z,1005.84
2019-05-21T05:15:33.822Z,1005.82
2019-05-21T05:16:33.853Z,1005.81
2019-05-21T05:17:33.937Z,1005.80
2019-05-21T05:18:33.800Z,1005.84
2019-05-21T05:19:33.792Z,1005.88
2019-05-21T05:20:33.766Z,1005.76
2019-05-21T05:21:33.767Z,1005.82
2019-05-21T05:22:33.778Z,1005.87
2019-05-21T05:23:33.760Z,1005.83
2019-05-21T05:24:37.019Z,1005.80
2019-05-21T05:25:33.762Z,1005.85
2019-05-21T05:26:33.715Z,1005.86
2019-05-21T05:27:33.727Z,1005.87
2019-05-21T05:28:33.680Z,1005.82
2019-05-21T05:29:33.675Z,1005.82
2019-05-21T05:30:33.661Z,1005.81
2019-05-21T05:31:33.720Z,1005.80
2019-05-21T05:32:33.676Z,1005.84
2019-05-21T05:33:33.626Z,1005.82
2019-05-21T05:34:33.620Z,1005.79
2019-05-21T05:35:33.608Z,1005.78
2019-05-21T05:36:33.627Z,1005.73
2019-05-21T05:37:43.270Z,1005.81
2019-05-21T05:38:34.599Z,1005.75
2019-05-21T05:39:33.571Z,1005.66
2019-05-21T05:40:33.562Z,1005.74
2019-05-21T05:41:33.545Z,1005.70
2019-05-21T05:42:33.556Z,1005.70
2019-05-21T05:43:33.550Z,1005.72
2019-05-21T05:44:33.515Z,1005.67
2019-05-21T05:45:33.506Z,1005.64
2019-05-21T05:46:33.488Z,1005.69
2019-05-21T05:47:33.511Z,1005.79
2019-05-21T05:48:33.469Z,1005.72
2019-05-21T05:49:33.458Z,1005.63
2019-05-21T05:50:33.452Z,1005.78
2019-05-21T05:51:33.451Z,1005.79
2019-05-21T05:52:33.453Z,1005.87
2019-05-21T05:53:33.449Z,1005.78
2019-05-21T05:54:33.404Z,1005.83
2019-05-21T05:55:33.404Z,1005.89
2019-05-21T05:56:33.390Z,1005.88
2019-05-21T05:57:33.375Z,1005.87
2019-05-21T05:58:33.392Z,1005.95
2019-05-21T05:59:33.350Z,1005.96
2019-05-21T06:00:33.349Z,1005.97
2019-05-21T06:01:33.334Z,1005.96
2019-05-21T06:02:33.331Z,1005.93
2019-05-21T06:03:33.346Z,1005.94
2019-05-21T06:04:33.298Z,1005.99
2019-05-21T06:05:33.290Z,1006.02
2019-05-21T06:06:33.279Z,1006.00
2019-05-21T06:07:33.270Z,1006.02
2019-05-21T06:08:33.293Z,1006.00
2019-05-21T06:09:33.249Z,1006.08
2019-05-21T06:10:33.233Z,1006.11
2019-05-21T06:11:33.239Z,1006.12
2019-05-21T06:12:33.219Z,1006.16
2019-05-21T06:13:33.231Z,1006.20
2019-05-21T06:14:33.193Z,1006.17
2019-05-21T06:15:33.182Z,1006.29
2019-05-21T06:16:33.171Z,1006.28
2019-05-21T06:17:33.170Z,1006.31
2019-05-21T06:18:35.549Z,1006.35
2019-05-21T06:19:33.189Z,1006.30
2019-05-21T06:20:33.136Z,1006.35
2019-05-21T06:21:33.130Z,1006.28
2019-05-21T06:22:33.115Z,1006.35
2019-05-21T06:23:33.126Z,1006.32
2019-05-21T06:24:33.118Z,1006.34
2019-05-21T06:25:33.101Z,1006.36
2019-05-21T06:26:33.064Z,1006.34
2019-05-21T06:27:33.055Z,1006.38
2019-05-21T06:28:33.117Z,1006.39
2019-05-21T06:29:33.066Z,1006.34
2019-05-21T06:30:33.019Z,1006.38
2019-05-21T06:31:33.017Z,1006.44
2019-05-21T06:32:33.021Z,1006.40
2019-05-21T06:33:32.988Z,1006.44
2019-05-21T06:34:33.001Z,1006.43
2019-05-21T06:35:32.975Z,1006.47
2019-05-21T06:36:32.969Z,1006.52
2019-05-21T06:37:32.949Z,1006.51
2019-05-21T06:38:32.934Z,1006.46
2019-05-21T06:39:32.952Z,1006.50
2019-05-21T06:40:32.926Z,1006.55
2019-05-21T06:41:32.930Z,1006.56
2019-05-21T06:42:32.897Z,1006.57
2019-05-21T06:43:32.886Z,1006.62
2019-05-21T06:44:32.888Z,1006.62
2019-05-21T06:45:32.859Z,1006.62
2019-05-21T06:46:32.875Z,1006.65
2019-05-21T06:47:32.838Z,1006.64
2019-05-21T06:48:32.823Z,1006.66
2019-05-21T06:49:32.859Z,1006.62
2019-05-21T06:50:32.875Z,1006.57
2019-05-21T06:51:32.830Z,1006.65
2019-05-21T06:52:32.783Z,1006.65
2019-05-21T06:53:32.880Z,1006.65
2019-05-21T06:54:32.789Z,1006.68
2019-05-21T06:55:32.749Z,1006.69
2019-05-21T06:56:32.740Z,1006.66
2019-05-21T06:57:32.769Z,1006.70
2019-05-21T06:58:32.726Z,1006.72
2019-05-21T06:59:32.735Z,1006.75
2019-05-21T07:00:32.724Z,1006.76
2019-05-21T07:01:32.693Z,1006.81
2019-05-21T07:02:32.683Z,1006.74
2019-05-21T07:03:32.678Z,1006.74
2019-05-21T07:04:32.683Z,1006.79
2019-05-21T07:05:32.691Z,1006.80
2019-05-21T07:06:32.641Z,1006.81
2019-05-21T07:07:32.632Z,1006.84
2019-05-21T07:08:34.936Z,1006.91
2019-05-21T07:09:32.601Z,1006.86
2019-05-21T07:10:32.630Z,1006.84
2019-05-21T07:11:32.582Z,1006.86
2019-05-21T07:12:32.568Z,1006.82
2019-05-21T07:13:32.562Z,1006.83
2019-05-21T07:14:32.549Z,1006.83
2019-05-21T07:15:32.556Z,1006.84
2019-05-21T07:16:32.534Z,1006.86
2019-05-21T07:17:32.518Z,1006.87
2019-05-21T07:18:32.513Z,1006.84
2019-05-21T07:19:32.495Z,1006.86
2019-05-21T07:20:32.508Z,1006.86
2019-05-21T07:21:32.476Z,1006.86
2019-05-21T07:22:32.530Z,1006.88
2019-05-21T07:23:32.455Z,1006.91
2019-05-21T07:24:32.439Z,1006.92
2019-05-21T07:25:32.461Z,1006.92
2019-05-21T07:26:32.435Z,1006.90
2019-05-21T07:27:32.411Z,1006.87
2019-05-21T07:28:32.410Z,1006.95
2019-05-21T07:29:32.393Z,1007.00
2019-05-21T07:30:32.418Z,1006.97
2019-05-21T07:31:32.363Z,1006.97
2019-05-21T07:32:32.364Z,1006.95
2019-05-21T07:33:32.342Z,1006.92
2019-05-21T07:34:32.356Z,1006.99
2019-05-21T07:35:32.322Z,1006.97
2019-05-21T07:36:32.345Z,1006.93
2019-05-21T07:37:32.301Z,1007.00
2019-05-21T07:38:32.286Z,1007.01
2019-05-21T07:39:32.281Z,1007.03
2019-05-21T07:40:32.271Z,1006.95
2019-05-21T07:41:32.306Z,1006.97
2019-05-21T07:42:32.248Z,1006.97
2019-05-21T07:43:32.252Z,1006.99
2019-05-21T07:44:32.222Z,1007.06
2019-05-21T07:45:32.225Z,1007.05
2019-05-21T07:46:32.231Z,1007.05
2019-05-21T07:47:32.201Z,1007.05
2019-05-21T07:48:32.184Z,1007.07
2019-05-21T07:49:32.187Z,1007.02
2019-05-21T07:50:32.170Z,1007.08
2019-05-21T07:51:32.183Z,1007.04
2019-05-21T07:52:32.142Z,1007.10
2019-05-21T07:53:32.139Z,1007.05
2019-05-21T07:54:32.115Z,1007.13
2019-05-21T07:55:32.115Z,1007.08
2019-05-21T07:56:32.146Z,1007.09
2019-05-21T07:57:32.134Z,1007.18
2019-05-21T07:58:32.083Z,1007.14
2019-05-21T07:59:32.067Z,1007.16
2019-05-21T08:00:32.056Z,1007.18
2019-05-21T08:01:32.058Z,1007.20
2019-05-21T08:02:32.079Z,1007.16
2019-05-21T08:03:32.022Z,1007.24
2019-05-21T08:04:32.025Z,1007.16
2019-05-21T08:05:32.002Z,1007.19
2019-05-21T08:06:32.044Z,1007.24
2019-05-21T08:07:32.013Z,1007.23
2019-05-21T08:08:32.011Z,1007.20
2019-05-21T08:09:31.959Z,1007.24
2019-05-21T08:10:31.952Z,1007.15
2019-05-21T08:11:31.947Z,1007.18
2019-05-21T08:12:38.869Z,1007.23
2019-05-21T08:13:32.912Z,1007.18
2019-05-21T08:14:31.903Z,1007.23
2019-05-21T08:15:31.903Z,1007.27
2019-05-21T08:16:31.892Z,1007.22
2019-05-21T08:17:31.913Z,1007.20
2019-05-21T08:18:31.869Z,1007.25
2019-05-21T08:19:31.853Z,1007.24
2019-05-21T08:20:31.851Z,1007.22
2019-05-21T08:21:31.829Z,1007.21
2019-05-21T08:22:31.851Z,1007.19
2019-05-21T08:23:31.807Z,1007.20
2019-05-21T08:24:31.809Z,1007.27
2019-05-21T08:25:31.789Z,1007.21
2019-05-21T08:26:31.815Z,1007.21
2019-05-21T08:27:31.808Z,1007.26
2019-05-21T08:28:31.749Z,1007.24
2019-05-21T08:29:31.738Z,1007.36
2019-05-21T08:30:31.733Z,1007.22
2019-05-21T08:31:31.722Z,1007.22
2019-05-21T08:32:31.728Z,1007.26
2019-05-21T08:33:31.701Z,1007.27
2019-05-21T08:34:31.687Z,1007.27
2019-05-21T08:35:31.699Z,1007.31
2019-05-21T08:36:31.665Z,1007.28
2019-05-21T08:37:31.687Z,1007.37
2019-05-21T08:38:31.675Z,1007.41
2019-05-21T08:39:31.661Z,1007.38
2019-05-21T08:40:31.623Z,1007.39
2019-05-21T08:41:31.620Z,1007.44
2019-05-21T08:42:31.665Z,1007.39
2019-05-21T08:43:31.594Z,1007.42
2019-05-21T08:44:31.580Z,1007.42
2019-05-21T08:45:31.570Z,1007.46
2019-05-21T08:46:31.595Z,1007.44
2019-05-21T08:47:31.549Z,1007.41
2019-05-21T08:48:31.565Z,1007.49
2019-05-21T08:49:31.524Z,1007.57
2019-05-21T08:50:31.617Z,1007.58
2019-05-21T08:51:31.514Z,1007.53
2019-05-21T08:52:31.532Z,1007.57
2019-05-21T08:53:31.529Z,1007.57
2019-05-21T08:54:31.481Z,1007.58
2019-05-21T08:55:31.463Z,1007.54
2019-05-21T08:56:31.460Z,1007.62
2019-05-21T08:57:31.443Z,1007.63
2019-05-21T08:58:31.454Z,1007.59
2019-05-21T08:59:31.434Z,1007.63
2019-05-21T09:00:31.410Z,1007.65
2019-05-21T09:01:31.401Z,1007.63
2019-05-21T09:02:31.417Z,1007.69
2019-05-21T09:03:31.410Z,1007.72
2019-05-21T09:04:45.405Z,1007.76
2019-05-21T09:05:32.349Z,1007.69
2019-05-21T09:06:31.356Z,1007.77
2019-05-21T09:07:31.356Z,1007.74
2019-05-21T09:08:31.353Z,1007.82
2019-05-21T09:09:48.565Z,1007.73
2019-05-21T09:10:32.307Z,1007.74
2019-05-21T09:11:31.295Z,1007.83
2019-05-21T09:12:31.284Z,1007.80
2019-05-21T09:13:31.307Z,1007.84
2019-05-21T09:14:31.287Z,1007.86
2019-05-21T09:15:31.250Z,1007.80
2019-05-21T09:16:31.230Z,1007.86
2019-05-21T09:17:31.229Z,1007.92
2019-05-21T09:18:31.235Z,1007.91
2019-05-21T09:19:31.230Z,1007.92
2019-05-21T09:20:31.197Z,1007.93
2019-05-21T09:21:31.195Z,1007.95
2019-05-21T09:22:31.176Z,1007.99
2019-05-21T09:23:31.240Z,1007.95
2019-05-21T09:24:31.186Z,1008.01
2019-05-21T09:25:31.138Z,1007.97
2019-05-21T09:26:31.136Z,1008.01
2019-05-21T09:27:31.201Z,1008.06
2019-05-21T09:28:31.194Z,1008.03
2019-05-21T09:29:31.123Z,1008.02
2019-05-21T09:30:31.087Z,1008.02
2019-05-21T09:31:31.075Z,1008.03
2019-05-21T09:32:31.066Z,1008.02
2019-05-21T09:33:31.063Z,1008.04
2019-05-21T09:34:47.340Z,1008.10
2019-05-21T09:35:32.035Z,1008.13
2019-05-21T09:36:31.036Z,1008.10
2019-05-21T09:37:31.020Z,1008.12
2019-05-21T09:38:30.998Z,1008.19
2019-05-21T09:39:31.024Z,1008.16
2019-05-21T09:40:30.982Z,1008.22
2019-05-21T09:41:30.981Z,1008.20
2019-05-21T09:42:30.949Z,1008.09
2019-05-21T09:43:30.941Z,1008.20
2019-05-21T09:44:30.971Z,1008.13
2019-05-21T09:45:30.947Z,1008.22
2019-05-21T09:46:30.915Z,1008.22
2019-05-21T09:47:30.904Z,1008.22
2019-05-21T09:48:30.915Z,1008.26
2019-05-21T09:49:30.883Z,1008.27
2019-05-21T09:50:30.909Z,1008.34
2019-05-21T09:51:30.863Z,1008.22
2019-05-21T09:52:30.870Z,1008.21
2019-05-21T09:53:30.854Z,1008.26
2019-05-21T09:54:30.837Z,1008.32
2019-05-21T09:55:33.545Z,1008.31
2019-05-21T09:56:30.800Z,1008.34
2019-05-21T09:57:30.855Z,1008.32
2019-05-21T09:58:30.812Z,1008.27
2019-05-21T09:59:30.782Z,1008.32
2019-05-21T10:00:30.788Z,1008.31
2019-05-21T10:01:30.759Z,1008.34
2019-05-21T10:02:30.738Z,1008.29
2019-05-21T10:03:30.749Z,1008.31
2019-05-21T10:04:30.718Z,1008.37
2019-05-21T10:05:30.741Z,1008.36
2019-05-21T10:06:30.705Z,1008.34
2019-05-21T10:07:39.899Z,1008.44
2019-05-21T10:08:31.677Z,1008.36
2019-05-21T10:09:30.671Z,1008.39
2019-05-21T10:10:30.701Z,1008.35
2019-05-21T10:11:30.650Z,1008.37
2019-05-21T10:12:30.627Z,1008.45
2019-05-21T10:13:30.621Z,1008.44
2019-05-21T10:14:34.071Z,1008.41
2019-05-21T10:15:30.631Z,1008.46
2019-05-21T10:16:30.591Z,1008.46
2019-05-21T10:17:30.615Z,1008.47
2019-05-21T10:18:30.565Z,1008.51
2019-05-21T10:19:30.562Z,1008.51
2019-05-21T10:20:30.585Z,1008.53
2019-05-21T10:21:30.549Z,1008.55
2019-05-21T10:22:30.520Z,1008.47
2019-05-21T10:23:30.508Z,1008.55
2019-05-21T10:24:30.513Z,1008.51
2019-05-21T10:25:30.490Z,1008.59
2019-05-21T10:26:30.510Z,1008.59
2019-05-21T10:27:30.470Z,1008.58
2019-05-21T10:28:30.457Z,1008.59
2019-05-21T10:29:30.450Z,1008.60
2019-05-21T10:30:30.437Z,1008.54
2019-05-21T10:31:30.455Z,1008.58
2019-05-21T10:32:30.429Z,1008.61
2019-05-21T10:33:30.409Z,1008.58
2019-05-21T10:34:30.405Z,1008.57
2019-05-21T10:35:30.390Z,1008.62
2019-05-21T10:36:30.404Z,1008.65
2019-05-21T10:37:30.367Z,1008.59
2019-05-21T10:38:30.368Z,1008.61
2019-05-21T10:39:30.350Z,1008.57
2019-05-21T10:40:30.348Z,1008.64
2019-05-21T10:41:30.364Z,1008.64
2019-05-21T10:42:30.313Z,1008.64
2019-05-21T10:43:30.296Z,1008.63
2019-05-21T10:44:30.285Z,1008.67
2019-05-21T10:45:30.286Z,1008.61
2019-05-21T10:46:30.272Z,1008.65
2019-05-21T10:47:30.293Z,1008.65
2019-05-21T10:48:30.251Z,1008.71
2019-05-21T10:49:30.243Z,1008.67
2019-05-21T10:50:30.226Z,1008.62
2019-05-21T10:51:30.214Z,1008.65
2019-05-21T10:52:30.237Z,1008.62
2019-05-21T10:53:30.200Z,1008.64
2019-05-21T10:54:30.194Z,1008.58
2019-05-21T10:55:30.171Z,1008.64
2019-05-21T10:56:45.182Z,1008.60
2019-05-21T10:57:31.186Z,1008.63
2019-05-21T10:58:30.141Z,1008.67
2019-05-21T10:59:30.125Z,1008.62
2019-05-21T11:00:30.118Z,1008.68
2019-05-21T11:01:30.133Z,1008.69
2019-05-21T11:02:30.120Z,1008.70
2019-05-21T11:03:30.093Z,1008.70
2019-05-21T11:04:30.076Z,1008.74
2019-05-21T11:05:30.070Z,1008.72
2019-05-21T11:06:30.056Z,1008.72
2019-05-21T11:07:30.125Z,1008.70
2019-05-21T11:08:30.031Z,1008.79
2019-05-21T11:09:30.031Z,1008.75
2019-05-21T11:10:30.014Z,1008.80
2019-05-21T11:11:29.996Z,1008.81
2019-05-21T11:12:30.028Z,1008.75
2019-05-21T11:13:29.981Z,1008.83
2019-05-21T11:14:29.961Z,1008.83
2019-05-21T11:15:29.978Z,1008.87
2019-05-21T11:16:29.944Z,1008.84
2019-05-21T11:17:29.966Z,1008.86
2019-05-21T11:18:29.929Z,1008.87
2019-05-21T11:19:29.911Z,1008.88
2019-05-21T11:20:29.897Z,1008.88
2019-05-21T11:21:29.903Z,1008.88
2019-05-21T11:22:29.911Z,1008.91
2019-05-21T11:23:29.866Z,1009.01
2019-05-21T11:24:29.857Z,1008.99
2019-05-21T11:25:29.860Z,1008.97
2019-05-21T11:26:29.838Z,1009.01
2019-05-21T11:27:29.855Z,1008.98
2019-05-21T11:28:29.817Z,1009.06
2019-05-21T11:29:29.801Z,1009.08
2019-05-21T11:30:29.788Z,1009.15
2019-05-21T11:31:29.783Z,1009.10
2019-05-21T11:32:29.797Z,1009.17
2019-05-21T11:33:29.786Z,1009.11
2019-05-21T11:34:29.749Z,1009.15
2019-05-21T11:35:29.738Z,1009.17
2019-05-21T11:36:29.763Z,1009.18
2019-05-21T11:37:29.738Z,1009.13
2019-05-21T11:38:39.405Z,1009.14
2019-05-21T11:39:30.691Z,1009.09
2019-05-21T11:40:29.684Z,1009.18
2019-05-21T11:41:29.697Z,1009.11
2019-05-21T11:42:29.657Z,1009.16
2019-05-21T11:43:29.673Z,1009.25
2019-05-21T11:44:29.655Z,1009.17
2019-05-21T11:45:32.704Z,1009.17
2019-05-21T11:46:29.617Z,1009.15
2019-05-21T11:47:29.604Z,1009.22
2019-05-21T11:48:29.625Z,1009.15
2019-05-21T11:49:29.592Z,1009.17
2019-05-21T11:50:29.583Z,1009.27
2019-05-21T11:51:29.561Z,1009.27
2019-05-21T11:52:29.551Z,1009.22
2019-05-21T11:53:31.897Z,1009.21
2019-05-21T11:54:29.537Z,1009.20
2019-05-21T11:55:29.536Z,1009.28
2019-05-21T11:56:29.575Z,1009.21
2019-05-21T11:57:29.503Z,1009.19
2019-05-21T11:58:29.530Z,1009.26
2019-05-21T11:59:29.479Z,1009.27
2019-05-21T12:00:29.470Z,1009.33
2019-05-21T12:01:29.456Z,1009.33
2019-05-21T12:02:29.484Z,1009.37
2019-05-21T12:03:29.465Z,1009.33
2019-05-21T12:04:29.433Z,1009.35
2019-05-21T12:05:29.419Z,1009.35